This is the latest recevied weather packets stored in our database for station/object KD0RII. If no packets are shown the sender has not sent any weather packets the latest 10 day(s).
| Time | Temp. | Humidity | Pressure | Rain* | Wind** | Luminosity | Snow |
|---|---|---|---|---|---|---|---|
| 1778198061 | 20.56° C | 46% | 1011.7 hPa | 0 mm | - | 68 W/m² | - |
| 1778197758 | 21.11° C | 45% | 1011.6 hPa | 0 mm | - | 71 W/m² | - |
| 1778197455 | 21.67° C | 43% | 1011.8 hPa | 0 mm | - | 75 W/m² | - |
| 1778197152 | 21.67° C | 41% | 1011.7 hPa | 0 mm | - | 102 W/m² | - |
| 1778196849 | 21.67° C | 42% | 1011.6 hPa | 0 mm | - | 118 W/m² | - |
| 1778196547 | 21.67° C | 40% | 1011.9 hPa | 0 mm | - | 180 W/m² | - |
| 1778196237 | 21.67° C | 40% | 1011.9 hPa | 0 mm | - | 175 W/m² | - |
| 1778195935 | 21.67° C | 40% | 1011.9 hPa | 0 mm | - | 152 W/m² | - |
| 1778195631 | 21.67° C | 41% | 1012 hPa | 0 mm | - | 137 W/m² | - |
| 1778195327 | 22.22° C | 40% | 1011.9 hPa | 0 mm | - | 120 W/m² | - |
| 1778195025 | 22.78° C | 38% | 1012.2 hPa | 0 mm | - | 157 W/m² | - |
| 1778194724 | 22.78° C | 39% | 1012.1 hPa | 0 mm | - | 197 W/m² | - |
| 1778194421 | 22.78° C | 39% | 1012.2 hPa | 0 mm | - | 281 W/m² | - |
| 1778194117 | 22.78° C | 41% | 1012.2 hPa | 0 mm | - | 256 W/m² | - |
| 1778193814 | 22.22° C | 41% | 1012.3 hPa | 0 mm | - | 221 W/m² | - |
| 1778193510 | 22.78° C | 39% | 1012.4 hPa | 0 mm | - | 269 W/m² | - |
| 1778193206 | 23.33° C | 39% | 1012.3 hPa | 0 mm | - | 221 W/m² | - |
| 1778192904 | 23.89° C | 38% | 1012.4 hPa | 0 mm | - | 387 W/m² | - |
| 1778192600 | 23.89° C | 39% | 1012.5 hPa | 0 mm | - | 210 W/m² | - |
| 1778192297 | 23.89° C | 40% | 1012.5 hPa | 0 mm | - | 315 W/m² | - |
| 1778191994 | 23.89° C | 39% | 1012.6 hPa | 0 mm | - | 466 W/m² | - |
| 1778191689 | 23.89° C | 40% | 1012.4 hPa | 0 mm | - | 512 W/m² | - |
| 1778191388 | 23.89° C | 43% | 1012.3 hPa | 0 mm | - | 508 W/m² | - |
| 1778191084 | 23.89° C | 38% | 1012.7 hPa | 0 mm | - | 536 W/m² | - |
| 1778190781 | 23.89° C | 39% | 1012.6 hPa | 0 mm | - | 541 W/m² | - |
* Rain latest hour (hover to see other rain measurements)
** Current wind speed in m/s (hover to see current wind gust speed)